Flight Track Log - Related Links

Times and Time Zones

All times are in EDT time to prevent confusion due to time zone crossing. See the AAL2007 flight status page for this flight to view local times or setup timezone preferences in your user account.

Time Position Orientation Groundspeed Altitude Reporting Facility
EDT Latitude Longitude Course Direction KTS MPH feet Rate Location/Type
Mon 06:12:51 PM 41.9333 -87.9000 194° South 186 214 2,200  Level Chicago TRACON
Mon 06:13:51 PM 41.8667 -87.9000 180° South 248 285 4,100 2,205 Climbing Chicago TRACON
Mon 06:14:00 PM 41.7833 -88.1055 201° Southwest  Level Estimated
Mon 06:14:48 PM 41.7878 -87.8886 174° South 257 296 6,500  Level Chicago Center
Mon 06:15:00 PM 41.6600 -88.0906 175° South  Level FlightAware Approximate
Mon 06:15:50 PM 41.7106 -87.9178 196° South 287 330 9,700  Level Chicago Center
Mon 06:16:00 PM 41.5612 -88.1902 197° South  Level Estimated
Mon 06:16:52 PM 41.6411 -87.9817 215° Southwest 299 344 12,000  Level Chicago Center
Mon 06:17:00 PM 41.4622 -88.2894 194° South  Level Estimated
Mon 06:17:54 PM 41.5561 -88.0472 210° Southwest 349 402 13,100  Level Chicago Center
Mon 06:18:00 PM 41.3699 -88.3817 194° South  Level Estimated
Mon 06:18:56 PM 41.4478 -88.1414 213° Southwest 402 463 16,000  Level Chicago Center
Mon 06:19:58 PM 41.3444 -88.2097 206° Southwest 435 501 17,900 1,984 Climbing Chicago Center
Mon 06:21:00 PM 41.2289 -88.2597 198° South 442 509 20,100 1,790 Climbing Chicago Center
Mon 06:22:02 PM 41.1097 -88.3136 199° South 452 520 21,600 1,597 Climbing Chicago Center
Mon 06:23:04 PM 40.9550 -88.3825 199° South 486 559 23,400 1,694 Climbing Chicago Center
Mon 06:24:06 PM 40.8433 -88.4797 213° Southwest 489 563 25,100 1,935 Climbing Chicago Center
Mon 06:25:08 PM 40.7428 -88.5947 221° Southwest 482 555 27,400 1,887 Climbing Chicago Center
Mon 06:26:10 PM 40.6389 -88.7008 218° Southwest 477 549 29,000 1,355 Climbing Chicago Center
Mon 06:27:12 PM 40.5353 -88.8064 218° Southwest 474 545 30,200 1,403 Climbing Chicago Center
Mon 06:28:14 PM 40.4119 -88.9317 218° Southwest 479 551 31,900 871 Climbing Chicago Center
Mon 06:29:16 PM 40.3069 -89.0397 218° Southwest 477 549 32,000 48 Climbing Chicago Center
Mon 06:30:18 PM 40.2014 -89.1461 218° Southwest 479 551 32,000  Level Chicago Center
Mon 06:31:21 PM 40.0992 -89.2506 218° Southwest 470 541 32,000  Level Chicago Center
Mon 06:32:06 PM 40.0175 -89.3353 218° Southwest 469 540 32,000  Level Kansas City Center
Mon 06:33:06 PM 39.9144 -89.4400 218° Southwest 468 539 32,000  Level Kansas City Center
Mon 06:34:10 PM 39.8100 -89.5442 217° Southwest 470 541 32,000  Level Kansas City Center
Mon 06:35:10 PM 39.6978 -89.6550 217° Southwest 470 541 32,000 98 Level Kansas City Center
Mon 06:36:12 PM 39.5933 -89.7614 218° Southwest 475 547 32,200 576 Climbing Kansas City Center
Mon 06:37:15 PM 39.4894 -89.8642 217° Southwest 474 545 33,200 864 Climbing Kansas City Center
Mon 06:38:17 PM 39.3856 -89.9669 217° Southwest 472 543 34,000 393 Climbing Kansas City Center
Mon 06:39:17 PM 39.2831 -90.0681 217° Southwest 467 537 34,000  Level Kansas City Center
Mon 06:40:18 PM 39.1808 -90.1692 217° Southwest 465 535 34,000  Level Kansas City Center
Mon 06:41:22 PM 39.0564 -90.2922 218° Southwest 470 541 34,000  Level Kansas City Center
Mon 06:42:24 PM 38.9536 -90.3931 217° Southwest 470 541 34,000  Level Kansas City Center
Mon 06:43:24 PM 38.8456 -90.5019 218° Southwest 464 534 34,000  Level Kansas City Center
Mon 06:44:28 PM 38.7453 -90.6108 220° Southwest 469 540 34,000  Level Kansas City Center
Mon 06:45:29 PM 38.6631 -90.7108 224° Southwest 467 537 34,000  Level Kansas City Center
Mon 06:46:30 PM 38.5492 -90.8417 222° Southwest 463 533 34,000  Level Kansas City Center
Mon 06:47:32 PM 38.4556 -90.9489 222° Southwest 458 527 34,000  Level Kansas City Center
Mon 06:48:35 PM 38.3600 -91.0572 222° Southwest 459 528 34,000  Level Kansas City Center
Mon 06:49:37 PM 38.2628 -91.1683 222° Southwest 468 539 34,000  Level Kansas City Center
Mon 06:50:37 PM 38.1500 -91.2944 221° Southwest 462 532 34,000  Level Kansas City Center
Mon 06:51:40 PM 38.0531 -91.4042 222° Southwest 462 532 34,000  Level Kansas City Center
Mon 06:52:41 PM 37.9569 -91.5122 222° Southwest 462 532 34,000  Level Kansas City Center
Mon 06:53:45 PM 37.8611 -91.6214 222° Southwest 459 528 34,000  Level Kansas City Center
Mon 06:54:46 PM 37.7628 -91.7311 221° Southwest 462 532 34,000  Level Kansas City Center
Mon 06:55:47 PM 37.6639 -91.8414 221° Southwest 466 536 34,000  Level Kansas City Center
Mon 06:56:51 PM 37.5622 -91.9542 221° Southwest 475 547 34,000  Level Kansas City Center
Mon 06:57:52 PM 37.4639 -92.0656 222° Southwest 473 544 34,000  Level Kansas City Center
Mon 06:58:53 PM 37.3650 -92.1744 221° Southwest 470 541 34,000  Level Kansas City Center
Mon 06:59:54 PM 37.2481 -92.3025 221° Southwest 465 535 34,000  Level Kansas City Center
Mon 07:00:57 PM 37.1522 -92.4072 221° Southwest 458 527 34,000  Level Kansas City Center
Mon 07:01:58 PM 37.0564 -92.5114 221° Southwest 456 525 34,000  Level Kansas City Center
Mon 07:03:01 PM 36.9586 -92.6169 221° Southwest 458 527 34,000  Level Kansas City Center
Mon 07:04:02 PM 36.8617 -92.7236 221° Southwest 460 529 34,000  Level Kansas City Center
Mon 07:05:05 PM 36.7633 -92.8283 220° Southwest 462 532 34,000  Level Kansas City Center
Mon 07:06:06 PM 36.6658 -92.9333 221° Southwest 462 532 34,000  Level Kansas City Center
Mon 07:07:08 PM 36.5667 -93.0369 220° Southwest 464 534 34,000  Level Kansas City Center
Mon 07:08:11 PM 36.4531 -93.1572 220° Southwest 462 532 34,000  Level Kansas City Center
Mon 07:08:56 PM 36.3714 -93.2436 220° Southwest 467 537 34,000  Level Memphis Center
Mon 07:09:56 PM 36.2728 -93.3508 221° Southwest 467 537 34,000  Level Memphis Center
Mon 07:10:56 PM 36.1767 -93.4503 220° Southwest 467 537 34,000  Level Memphis Center
Mon 07:11:56 PM 36.0661 -93.5383 213° Southwest 467 537 34,000  Level Memphis Center
Mon 07:12:56 PM 35.9575 -93.6267 213° Southwest 472 543 34,000  Level Memphis Center
Mon 07:13:56 PM 35.8489 -93.7119 212° Southwest 472 543 34,000  Level Memphis Center
Mon 07:14:56 PM 35.7400 -93.7994 213° Southwest 472 543 34,000  Level Memphis Center
Mon 07:15:56 PM 35.6292 -93.8894 213° Southwest 477 549 34,000  Level Memphis Center
Mon 07:16:56 PM 35.5203 -93.9767 213° Southwest 471 542 34,000  Level Memphis Center
Mon 07:17:56 PM 35.4133 -94.0611 213° Southwest 471 542 34,000  Level Memphis Center
Mon 07:18:56 PM 35.3022 -94.1478 212° Southwest 471 542 34,000  Level Memphis Center
Mon 07:19:56 PM 35.1933 -94.2319 212° Southwest 471 542 34,000  Level Memphis Center
Mon 07:20:56 PM 35.0864 -94.3183 213° Southwest 471 542 34,000  Level Memphis Center
Mon 07:22:01 PM 34.9719 -94.4111 214° Southwest 454 522 34,000  Level Fort Worth Center
Mon 07:23:01 PM 34.8858 -94.4772 212° Southwest 459 528 34,000  Level Fort Worth Center
Mon 07:24:01 PM 34.7653 -94.5775 214° Southwest 465 535 34,000  Level Fort Worth Center
Mon 07:25:01 PM 34.6564 -94.6594 212° Southwest 465 535 34,000  Level Fort Worth Center
Mon 07:26:01 PM 34.5478 -94.7436 213° Southwest 475 547 34,000  Level Fort Worth Center
Mon 07:27:01 PM 34.4369 -94.8300 213° Southwest 475 547 34,000  Level Fort Worth Center
Mon 07:28:02 PM 34.3258 -94.9139 212° Southwest 475 547 34,000  Level Fort Worth Center
Mon 07:29:01 PM 34.2169 -94.9975 212° Southwest 475 547 34,000  Level Fort Worth Center
Mon 07:30:01 PM 34.1058 -95.0833 213° Southwest 475 547 34,000  Level Fort Worth Center
Mon 07:31:01 PM 33.9967 -95.1664 212° Southwest 475 547 34,000  Level Fort Worth Center
Mon 07:32:01 PM 33.8836 -95.2517 212° Southwest 475 547 34,000  Level Fort Worth Center
Mon 07:33:01 PM 33.7722 -95.3369 212° Southwest 475 547 34,000  Level Fort Worth Center
Mon 07:34:01 PM 33.6631 -95.4194 212° Southwest 475 547 34,000  Level Fort Worth Center
Mon 07:35:01 PM 33.5536 -95.5017 212° Southwest 475 547 34,000  Level Fort Worth Center
Mon 07:36:01 PM 33.4381 -95.5864 211° Southwest 475 547 34,000  Level Fort Worth Center
Mon 07:37:02 PM 33.3181 -95.6733 211° Southwest 475 547 34,000  Level Fort Worth Center
Mon 07:38:02 PM 33.2108 -95.7572 213° Southwest 475 547 34,000  Level Fort Worth Center
Mon 07:39:01 PM 33.0969 -95.8389 211° Southwest 475 547 34,000  Level Fort Worth Center
Mon 07:40:02 PM 32.9875 -95.9200 212° Southwest 475 547 34,000  Level Fort Worth Center
Mon 07:41:01 PM 32.8775 -95.9986 211° Southwest 475 547 34,000  Level Fort Worth Center
Mon 07:42:02 PM 32.7700 -96.0792 212° Southwest 475 547 34,000  Level Fort Worth Center
Mon 07:43:02 PM 32.6581 -96.1622 212° Southwest 475 547 34,000  Level Fort Worth Center
Mon 07:44:02 PM 32.5483 -96.2428 212° Southwest 475 547 34,000  Level Fort Worth Center
Mon 07:45:02 PM 32.4383 -96.3253 212° Southwest 475 547 34,000  Level Fort Worth Center
Mon 07:46:02 PM 32.3242 -96.4078 211° Southwest 480 552 34,000  Level Fort Worth Center
Mon 07:47:02 PM 32.2119 -96.4878 211° Southwest 480 552 34,000  Level Fort Worth Center
Mon 07:48:01 PM 32.1000 -96.5697 212° Southwest 480 552 34,000 -600 Level Fort Worth Center
Mon 07:49:02 PM 31.9897 -96.6517 212° Southwest 475 547 32,800 -1,350 Descending Fort Worth Center
Mon 07:50:01 PM 31.8900 -96.7233 211° Southwest 475 547 31,300 -1,642 Descending Fort Worth Center
Mon 07:50:48 PM 31.7931 -96.7933 212° Southwest 476 548 29,900 -1,872 Descending Houston Center
Mon 07:51:50 PM 31.6761 -96.8756 211° Southwest 482 555 27,900 -1,984 Descending Houston Center
Mon 07:52:52 PM 31.5578 -96.9606 211° Southwest 490 564 25,800 -1,902 Descending Houston Center
Mon 07:53:53 PM 31.4419 -97.0436 211° Southwest 486 559 24,000 -1,610 Descending Houston Center
Mon 07:54:55 PM 31.3275 -97.1247 211° Southwest 479 551 22,500 -1,839 Descending Houston Center
Mon 07:55:57 PM 31.2131 -97.2047 211° Southwest 477 549 20,200 -2,293 Descending Houston Center
Mon 07:56:58 PM 31.0947 -97.2539 200° South 450 518 17,800 -2,341 Descending Houston Center
Mon 07:58:00 PM 30.9636 -97.3061 199° South 438 504 15,400 -2,129 Descending Houston Center
Mon 07:59:02 PM 30.8539 -97.3467 198° South 423 487 13,400 -1,610 Descending Houston Center
Mon 08:00:03 PM 30.7525 -97.3864 199° South 389 448 12,100 -1,122 Descending Houston Center
Mon 08:01:05 PM 30.6647 -97.4200 198° South 335 386 11,100 -1,500 Descending Houston Center
Mon 08:02:07 PM 30.5869 -97.4497 198° South 298 343 9,000 -1,756 Descending Houston Center
Mon 08:03:08 PM 30.5136 -97.4869 204° Southwest 288 331 7,500 -1,707 Descending Houston Center
Mon 08:04:10 PM 30.4364 -97.5431 212° Southwest 280 322 5,500 -1,645 Descending Houston Center
Mon 08:05:12 PM 30.3800 -97.5853 213° Southwest 239 275 4,100 -1,355 Descending Houston Center

Login

Don't have an account? Register now (free) for customized features, flight alerts, and more!